createdAt,value
2023-03-27T00:00:06.513Z,0.00
2023-03-27T00:01:06.595Z,0.00
2023-03-27T00:02:06.711Z,0.00
2023-03-27T00:03:06.977Z,0.00
2023-03-27T00:04:06.856Z,0.00
2023-03-27T00:05:06.915Z,0.00
2023-03-27T00:06:06.993Z,0.00
2023-03-27T00:07:07.080Z,0.00
2023-03-27T00:08:07.166Z,0.00
2023-03-27T00:09:07.246Z,0.00
2023-03-27T00:10:07.338Z,0.00
2023-03-27T00:11:07.408Z,0.00
2023-03-27T00:12:07.496Z,0.00
2023-03-27T00:13:07.591Z,0.00
2023-03-27T00:14:07.622Z,0.00
2023-03-27T00:15:07.702Z,0.00
2023-03-27T00:16:07.809Z,0.00
2023-03-27T00:17:07.856Z,0.00
2023-03-27T00:18:08.000Z,0.00
2023-03-27T00:19:08.004Z,0.00
2023-03-27T00:20:08.095Z,0.00
2023-03-27T00:21:08.177Z,0.00
2023-03-27T00:22:08.248Z,0.00
2023-03-27T00:23:08.361Z,0.00
2023-03-27T00:24:08.417Z,0.00
2023-03-27T00:25:08.497Z,0.00
2023-03-27T00:26:08.593Z,0.00
2023-03-27T00:27:08.662Z,0.00
2023-03-27T00:28:08.805Z,0.00
2023-03-27T00:29:08.843Z,0.00
2023-03-27T00:30:08.924Z,0.00
2023-03-27T00:31:09.025Z,0.00
2023-03-27T00:32:09.111Z,0.00
2023-03-27T00:33:09.231Z,0.00
2023-03-27T00:34:09.250Z,0.00
2023-03-27T00:35:09.335Z,0.00
2023-03-27T00:36:09.515Z,0.00
2023-03-27T00:37:09.482Z,0.00
2023-03-27T00:38:09.607Z,0.00
2023-03-27T00:39:09.654Z,0.00
2023-03-27T00:40:09.749Z,0.00
2023-03-27T00:41:09.840Z,0.00
2023-03-27T00:42:09.914Z,0.00
2023-03-27T00:43:10.010Z,0.00
2023-03-27T00:44:10.099Z,0.00
2023-03-27T00:45:10.306Z,0.00
2023-03-27T00:46:10.340Z,0.00
2023-03-27T00:47:10.351Z,0.00
2023-03-27T00:48:10.476Z,0.00
2023-03-27T00:49:10.509Z,0.00
2023-03-27T00:50:10.598Z,0.00
2023-03-27T00:51:10.679Z,0.00
2023-03-27T00:52:10.767Z,0.00
2023-03-27T00:53:10.868Z,0.00
2023-03-27T00:54:10.928Z,0.00
2023-03-27T00:55:10.998Z,0.00
2023-03-27T00:56:11.076Z,0.00
2023-03-27T00:57:11.196Z,0.00
2023-03-27T00:58:11.248Z,0.00
2023-03-27T00:59:11.288Z,0.00
2023-03-27T01:00:11.364Z,0.00
2023-03-27T01:01:11.487Z,0.00
2023-03-27T01:02:11.518Z,0.00
2023-03-27T01:03:11.712Z,0.00
2023-03-27T01:04:11.679Z,0.00
2023-03-27T01:05:11.775Z,0.00
2023-03-27T01:06:11.868Z,0.00
2023-03-27T01:07:11.959Z,0.00
2023-03-27T01:08:12.048Z,0.00
2023-03-27T01:09:20.521Z,0.00
2023-03-27T01:10:12.198Z,0.00
2023-03-27T01:11:12.252Z,0.00
2023-03-27T01:12:12.328Z,0.00
2023-03-27T01:13:12.455Z,0.00
2023-03-27T01:14:12.512Z,0.00
2023-03-27T01:15:12.562Z,0.00
2023-03-27T01:16:12.701Z,0.00
2023-03-27T01:17:12.747Z,0.00
2023-03-27T01:18:12.859Z,0.00
2023-03-27T01:19:12.908Z,0.00
2023-03-27T01:20:12.981Z,0.00
2023-03-27T01:21:13.054Z,0.00
2023-03-27T01:22:13.132Z,0.00
2023-03-27T01:23:13.233Z,0.00
2023-03-27T01:24:13.309Z,0.00
2023-03-27T01:25:13.386Z,0.00
2023-03-27T01:26:13.469Z,0.00
2023-03-27T01:27:13.533Z,0.00
2023-03-27T01:28:13.634Z,0.00
2023-03-27T01:29:13.695Z,0.00
2023-03-27T01:30:13.782Z,0.00
2023-03-27T01:31:13.921Z,0.00
2023-03-27T01:32:14.026Z,0.00
2023-03-27T01:33:14.034Z,0.00
2023-03-27T01:34:14.112Z,0.00
2023-03-27T01:35:14.189Z,0.00
2023-03-27T01:36:14.272Z,0.00
2023-03-27T01:37:14.348Z,0.00
2023-03-27T01:38:14.440Z,0.00
2023-03-27T01:39:14.505Z,0.00
2023-03-27T01:40:14.587Z,0.00
2023-03-27T01:41:14.661Z,0.00
2023-03-27T01:42:14.740Z,0.00
2023-03-27T01:43:14.845Z,0.00
2023-03-27T01:44:14.884Z,0.00
2023-03-27T01:45:14.968Z,0.00
2023-03-27T01:46:15.080Z,0.00
2023-03-27T01:47:15.092Z,0.00
2023-03-27T01:48:15.207Z,0.00
2023-03-27T01:49:15.240Z,0.00
2023-03-27T01:50:15.332Z,0.00
2023-03-27T01:51:15.385Z,0.00
2023-03-27T01:52:15.480Z,0.00
2023-03-27T01:53:15.563Z,0.00
2023-03-27T01:54:15.644Z,0.00
2023-03-27T01:55:15.727Z,0.00
2023-03-27T01:56:15.809Z,0.00
2023-03-27T01:57:15.925Z,0.00
2023-03-27T01:58:15.984Z,0.00
2023-03-27T01:59:16.054Z,0.00
2023-03-27T02:00:17.977Z,0.00
2023-03-27T02:01:16.230Z,0.00
2023-03-27T02:02:16.294Z,0.00
2023-03-27T02:03:16.382Z,0.00
2023-03-27T02:04:16.455Z,0.00
2023-03-27T02:05:16.568Z,0.00
2023-03-27T02:06:16.636Z,0.00
2023-03-27T02:07:16.690Z,0.00
2023-03-27T02:08:16.795Z,0.00
2023-03-27T02:09:16.848Z,0.00
2023-03-27T02:10:16.946Z,0.00
2023-03-27T02:11:17.006Z,0.00
2023-03-27T02:12:17.099Z,0.00
2023-03-27T02:13:17.173Z,0.00
2023-03-27T02:14:17.258Z,0.00
2023-03-27T02:15:23.587Z,0.00
2023-03-27T02:16:17.508Z,0.00
2023-03-27T02:17:17.506Z,0.00
2023-03-27T02:18:17.581Z,0.00
2023-03-27T02:19:17.643Z,0.00
2023-03-27T02:20:17.749Z,0.00
2023-03-27T02:21:17.813Z,0.00
2023-03-27T02:22:17.886Z,0.00
2023-03-27T02:23:17.973Z,0.00
2023-03-27T02:24:18.046Z,0.00
2023-03-27T02:25:18.110Z,0.00
2023-03-27T02:26:18.202Z,0.00
2023-03-27T02:27:18.281Z,0.00
2023-03-27T02:28:18.380Z,0.00
2023-03-27T02:29:18.402Z,0.00
2023-03-27T02:30:18.488Z,0.00
2023-03-27T02:31:33.929Z,0.00
2023-03-27T02:32:18.734Z,0.00
2023-03-27T02:33:18.772Z,0.00
2023-03-27T02:34:18.809Z,0.00
2023-03-27T02:35:18.886Z,0.00
2023-03-27T02:36:18.965Z,0.00
2023-03-27T02:37:19.035Z,0.00
2023-03-27T02:38:19.161Z,0.00
2023-03-27T02:39:19.187Z,0.00
2023-03-27T02:40:19.265Z,0.00
2023-03-27T02:41:19.341Z,0.00
2023-03-27T02:42:19.421Z,0.00
2023-03-27T02:43:19.513Z,0.00
2023-03-27T02:44:19.589Z,0.00
2023-03-27T02:45:19.660Z,0.00
2023-03-27T02:46:19.817Z,0.00
2023-03-27T02:47:19.814Z,0.00
2023-03-27T02:48:19.927Z,0.00
2023-03-27T02:49:19.956Z,0.00
2023-03-27T02:50:20.033Z,0.00
2023-03-27T02:51:20.102Z,0.00
2023-03-27T02:52:20.173Z,0.00
2023-03-27T02:53:20.452Z,0.00
2023-03-27T02:54:20.312Z,0.00
2023-03-27T02:55:20.409Z,0.00
2023-03-27T02:56:20.469Z,0.00
2023-03-27T02:57:20.542Z,0.00
2023-03-27T02:58:20.619Z,0.00
2023-03-27T02:59:20.672Z,0.00
2023-03-27T03:00:20.754Z,0.00
2023-03-27T03:01:20.862Z,0.00
2023-03-27T03:02:20.983Z,0.00
2023-03-27T03:03:21.081Z,0.00
2023-03-27T03:04:21.051Z,0.00
2023-03-27T03:05:21.129Z,0.00
2023-03-27T03:06:21.208Z,0.00
2023-03-27T03:07:21.290Z,0.00
2023-03-27T03:08:21.384Z,0.00
2023-03-27T03:09:21.472Z,0.00
2023-03-27T03:10:21.545Z,0.00
2023-03-27T03:11:21.621Z,0.00
2023-03-27T03:12:21.710Z,0.00
2023-03-27T03:13:21.803Z,0.00
2023-03-27T03:14:21.873Z,0.00
2023-03-27T03:15:21.974Z,0.00
2023-03-27T03:16:22.058Z,0.00
2023-03-27T03:17:22.107Z,0.00
2023-03-27T03:18:22.195Z,0.00
2023-03-27T03:19:22.273Z,0.00
2023-03-27T03:20:22.350Z,0.00
2023-03-27T03:21:22.451Z,0.00
2023-03-27T03:22:22.536Z,0.00
2023-03-27T03:23:22.608Z,0.00
2023-03-27T03:24:22.644Z,0.00
2023-03-27T03:25:22.719Z,0.00
2023-03-27T03:26:22.785Z,0.00
2023-03-27T03:27:22.906Z,0.00
2023-03-27T03:28:22.990Z,0.00
2023-03-27T03:29:23.046Z,0.00
2023-03-27T03:30:23.116Z,0.00
2023-03-27T03:31:23.258Z,0.00
2023-03-27T03:32:23.336Z,0.00
2023-03-27T03:33:23.370Z,0.00
2023-03-27T03:34:23.444Z,0.00
2023-03-27T03:35:23.554Z,0.00
2023-03-27T03:36:23.591Z,0.00
2023-03-27T03:37:23.672Z,0.00
2023-03-27T03:38:23.761Z,0.00
2023-03-27T03:39:23.857Z,0.00
2023-03-27T03:40:23.917Z,0.00
2023-03-27T03:41:23.997Z,0.00
2023-03-27T03:42:24.327Z,0.00
2023-03-27T03:43:24.184Z,0.00
2023-03-27T03:44:24.271Z,0.00
2023-03-27T03:45:24.341Z,0.00
2023-03-27T03:46:24.453Z,0.00
2023-03-27T03:47:24.557Z,0.00
2023-03-27T03:48:24.617Z,0.00
2023-03-27T03:49:24.684Z,0.00
2023-03-27T03:50:24.753Z,0.00
2023-03-27T03:51:24.832Z,0.00
2023-03-27T03:52:24.899Z,0.00
2023-03-27T03:53:24.989Z,0.00
2023-03-27T03:54:25.044Z,0.00
2023-03-27T03:55:25.120Z,0.00
2023-03-27T03:56:25.187Z,0.00
2023-03-27T03:57:25.274Z,0.00
2023-03-27T03:58:34.652Z,0.00
2023-03-27T03:59:25.440Z,0.00
2023-03-27T04:00:25.515Z,0.00
2023-03-27T04:01:25.606Z,0.00
2023-03-27T04:02:25.709Z,0.00
2023-03-27T04:03:25.886Z,0.00
2023-03-27T04:04:25.823Z,0.00
2023-03-27T04:05:25.893Z,0.00
2023-03-27T04:06:25.964Z,0.00
2023-03-27T04:07:26.036Z,0.00
2023-03-27T04:08:26.110Z,0.00
2023-03-27T04:09:26.188Z,0.00
2023-03-27T04:10:26.255Z,0.00
2023-03-27T04:11:26.328Z,0.00
2023-03-27T04:12:26.394Z,0.00
2023-03-27T04:13:26.487Z,0.00
2023-03-27T04:14:26.549Z,0.00
2023-03-27T04:15:26.626Z,0.00
2023-03-27T04:16:26.758Z,0.00
2023-03-27T04:17:26.973Z,0.00
2023-03-27T04:18:26.938Z,0.00
2023-03-27T04:19:27.509Z,0.00
2023-03-27T04:20:27.000Z,0.00
2023-03-27T04:21:27.073Z,0.00
2023-03-27T04:22:27.140Z,0.00
2023-03-27T04:23:27.240Z,0.00
2023-03-27T04:24:27.300Z,0.00
2023-03-27T04:25:27.377Z,0.00
2023-03-27T04:26:27.514Z,0.00
2023-03-27T04:27:27.516Z,0.00
2023-03-27T04:28:27.610Z,0.00
2023-03-27T04:29:27.672Z,0.00
2023-03-27T04:30:27.748Z,0.00
2023-03-27T04:31:27.858Z,0.00
2023-03-27T04:32:27.937Z,0.00
2023-03-27T04:33:30.609Z,0.00
2023-03-27T04:34:28.052Z,0.00
2023-03-27T04:35:28.144Z,0.00
2023-03-27T04:36:30.103Z,0.00
2023-03-27T04:37:28.299Z,0.00
2023-03-27T04:38:28.363Z,0.00
2023-03-27T04:39:28.443Z,0.00
2023-03-27T04:40:28.513Z,0.00
2023-03-27T04:41:28.606Z,0.00
2023-03-27T04:42:28.686Z,0.00
2023-03-27T04:43:28.768Z,0.00
2023-03-27T04:44:28.852Z,4.00
2023-03-27T04:45:28.904Z,4.00
2023-03-27T04:46:29.007Z,4.00
2023-03-27T04:47:29.098Z,0.00
2023-03-27T04:48:29.172Z,4.00
2023-03-27T04:49:29.238Z,4.00
2023-03-27T04:50:29.299Z,4.00
2023-03-27T04:51:29.369Z,8.00
2023-03-27T04:52:29.446Z,8.00
2023-03-27T04:53:29.528Z,8.00
2023-03-27T04:54:29.597Z,8.00
2023-03-27T04:55:29.676Z,12.00
2023-03-27T04:56:29.772Z,12.00
2023-03-27T04:57:29.844Z,16.00
2023-03-27T04:58:29.962Z,16.00
2023-03-27T04:59:30.001Z,24.00
2023-03-27T05:00:30.073Z,28.00
2023-03-27T05:01:30.192Z,32.00
2023-03-27T05:02:30.276Z,36.00
2023-03-27T05:03:30.373Z,48.00
2023-03-27T05:04:30.395Z,52.00
2023-03-27T05:05:30.469Z,64.00
2023-03-27T05:06:30.576Z,76.00
2023-03-27T05:07:30.662Z,88.00
2023-03-27T05:08:30.746Z,104.00
2023-03-27T05:09:30.793Z,120.00
2023-03-27T05:10:30.871Z,140.00
2023-03-27T05:11:30.931Z,160.00
2023-03-27T05:12:31.012Z,184.00
2023-03-27T05:13:31.102Z,208.00
2023-03-27T05:14:31.184Z,240.00
2023-03-27T05:15:31.254Z,264.00
2023-03-27T05:16:31.358Z,300.00
2023-03-27T05:17:31.431Z,336.00
2023-03-27T05:18:31.489Z,372.00
2023-03-27T05:19:31.558Z,412.00
2023-03-27T05:20:31.633Z,456.00
2023-03-27T05:21:31.691Z,500.00
2023-03-27T05:22:31.762Z,544.00
2023-03-27T05:23:31.850Z,596.00
2023-03-27T05:24:31.929Z,652.00
2023-03-27T05:25:32.016Z,704.00
2023-03-27T05:26:32.043Z,760.00
2023-03-27T05:27:32.103Z,820.00
2023-03-27T05:28:32.192Z,880.00
2023-03-27T05:29:47.233Z,948.00
2023-03-27T05:30:32.367Z,1020.00
2023-03-27T05:31:32.397Z,1096.00
2023-03-27T05:32:32.491Z,1180.00
2023-03-27T05:33:32.535Z,1272.00
2023-03-27T05:34:32.609Z,1380.00
2023-03-27T05:35:32.709Z,1508.00
2023-03-27T05:36:32.775Z,1632.00
2023-03-27T05:37:32.829Z,1728.00
2023-03-27T05:38:32.930Z,1788.00
2023-03-27T05:39:32.975Z,1860.00
2023-03-27T05:40:33.047Z,1944.00
2023-03-27T05:41:33.093Z,2056.00
2023-03-27T05:42:33.210Z,2184.00
2023-03-27T05:43:33.286Z,2336.00
2023-03-27T05:44:33.353Z,2464.00
2023-03-27T05:45:33.411Z,2516.00
2023-03-27T05:46:33.512Z,2572.00
2023-03-27T05:47:33.562Z,2616.00
2023-03-27T05:48:33.628Z,2668.00
2023-03-27T05:49:34.266Z,2752.00
2023-03-27T05:50:33.781Z,2880.00
2023-03-27T05:51:33.840Z,3060.00
2023-03-27T05:52:33.911Z,3352.00
2023-03-27T05:53:33.976Z,3776.00
2023-03-27T05:54:34.037Z,4276.00
2023-03-27T05:55:34.102Z,4716.00
2023-03-27T05:56:34.198Z,4928.00
2023-03-27T05:57:34.217Z,4928.00
2023-03-27T05:58:34.344Z,4876.00
2023-03-27T05:59:34.791Z,4852.00
2023-03-27T06:00:34.487Z,4848.00
2023-03-27T06:01:34.534Z,4792.00
2023-03-27T06:02:34.688Z,4724.00
2023-03-27T06:03:34.992Z,4588.00
2023-03-27T06:04:34.816Z,4416.00
2023-03-27T06:05:34.860Z,4376.00
2023-03-27T06:06:34.917Z,4296.00
2023-03-27T06:07:34.981Z,3900.00
2023-03-27T06:08:35.068Z,3492.00
2023-03-27T06:09:35.123Z,3288.00
2023-03-27T06:10:35.230Z,3160.00
2023-03-27T06:11:35.289Z,3064.00
2023-03-27T06:12:35.361Z,2960.00
2023-03-27T06:13:35.471Z,2848.00
2023-03-27T06:14:35.516Z,2808.00
2023-03-27T06:15:35.624Z,2856.00
2023-03-27T06:16:35.667Z,2732.00
2023-03-27T06:17:35.777Z,2656.00
2023-03-27T06:18:35.836Z,2604.00
2023-03-27T06:19:35.894Z,2692.00
2023-03-27T06:20:36.007Z,2812.00
2023-03-27T06:21:36.065Z,2712.00
2023-03-27T06:22:36.133Z,2544.00
2023-03-27T06:23:36.209Z,2364.00
2023-03-27T06:24:36.270Z,2128.00
2023-03-27T06:25:36.323Z,1864.00
2023-03-27T06:26:36.426Z,1888.00
2023-03-27T06:27:36.482Z,1840.00
2023-03-27T06:28:36.577Z,1756.00
2023-03-27T06:29:36.630Z,1700.00
2023-03-27T06:30:36.707Z,1712.00
2023-03-27T06:31:36.860Z,1636.00
2023-03-27T06:32:36.903Z,1512.00
2023-03-27T06:33:36.936Z,1516.00
2023-03-27T06:34:37.003Z,1536.00
2023-03-27T06:35:37.084Z,1572.00
2023-03-27T06:36:37.127Z,1672.00
2023-03-27T06:37:37.194Z,1768.00
2023-03-27T06:38:37.356Z,1816.00
2023-03-27T06:39:37.372Z,1864.00
2023-03-27T06:40:37.474Z,2012.00
2023-03-27T06:41:37.530Z,2232.00
2023-03-27T06:42:37.601Z,2388.00
2023-03-27T06:43:37.672Z,2448.00
2023-03-27T06:44:37.737Z,2496.00
2023-03-27T06:45:37.793Z,2604.00
2023-03-27T06:46:45.096Z,2664.00
2023-03-27T06:47:44.373Z,2752.00
2023-03-27T06:48:38.146Z,2828.00
2023-03-27T06:49:38.146Z,2792.00
2023-03-27T06:50:38.212Z,2640.00
2023-03-27T06:51:38.291Z,2576.00
2023-03-27T06:52:38.351Z,2868.00
2023-03-27T06:53:38.441Z,3188.00
2023-03-27T06:54:38.511Z,3316.00
2023-03-27T06:55:38.569Z,3392.00
2023-03-27T06:56:38.681Z,3444.00
2023-03-27T06:57:38.703Z,3704.00
2023-03-27T06:58:38.788Z,4532.00
2023-03-27T06:59:38.865Z,5304.00
2023-03-27T07:00:38.967Z,6020.00
2023-03-27T07:01:39.111Z,6680.00
2023-03-27T07:02:39.112Z,6984.00
2023-03-27T07:03:39.190Z,7768.00
2023-03-27T07:04:39.262Z,9556.00
2023-03-27T07:05:39.418Z,11920.00
2023-03-27T07:06:39.775Z,15264.00
2023-03-27T07:07:41.463Z,26048.00
2023-03-27T07:08:39.604Z,73280.00
2023-03-27T07:09:40.139Z,74816.00
2023-03-27T07:10:39.712Z,24704.00
2023-03-27T07:11:39.775Z,9228.00
2023-03-27T07:12:39.835Z,6316.00
2023-03-27T07:13:39.940Z,5136.00
2023-03-27T07:14:40.006Z,5236.00
2023-03-27T07:15:40.063Z,6388.00
2023-03-27T07:16:40.170Z,6836.00
2023-03-27T07:17:48.590Z,7316.00
2023-03-27T07:18:40.293Z,8588.00
2023-03-27T07:19:40.349Z,10392.00
2023-03-27T07:20:40.434Z,11264.00
2023-03-27T07:21:40.539Z,14256.00
2023-03-27T07:22:40.748Z,13948.00
2023-03-27T07:23:40.688Z,11380.00
2023-03-27T07:24:40.754Z,14836.00
2023-03-27T07:25:40.802Z,11220.00
2023-03-27T07:26:40.904Z,9520.00
2023-03-27T07:27:40.964Z,8708.00
2023-03-27T07:28:41.063Z,7908.00
2023-03-27T07:29:41.083Z,7388.00
2023-03-27T07:30:41.161Z,6388.00
2023-03-27T07:31:55.583Z,5692.00
2023-03-27T07:32:41.380Z,5536.00
2023-03-27T07:33:41.496Z,5604.00
2023-03-27T07:34:41.468Z,5640.00
2023-03-27T07:35:41.544Z,4820.00
2023-03-27T07:36:41.637Z,4876.00
2023-03-27T07:37:41.700Z,5012.00
2023-03-27T07:38:41.808Z,5676.00
2023-03-27T07:39:41.874Z,7456.00
2023-03-27T07:40:42.022Z,8968.00
2023-03-27T07:41:42.017Z,10016.00
2023-03-27T07:42:42.122Z,9864.00
2023-03-27T07:43:42.194Z,8644.00
2023-03-27T07:44:42.270Z,13020.00
2023-03-27T07:45:42.401Z,18880.00
2023-03-27T07:46:42.454Z,10128.00
2023-03-27T07:47:42.520Z,7980.00
2023-03-27T07:48:42.618Z,7168.00
2023-03-27T07:49:42.639Z,8740.00
2023-03-27T07:50:42.717Z,13216.00
2023-03-27T07:51:42.789Z,50848.00
2023-03-27T07:52:42.895Z,24288.00
2023-03-27T07:53:42.993Z,19552.00
2023-03-27T07:54:43.057Z,12072.00
2023-03-27T07:55:43.110Z,9612.00
2023-03-27T07:56:43.240Z,11748.00
2023-03-27T07:57:58.104Z,14116.00
2023-03-27T07:58:43.473Z,23168.00
2023-03-27T07:59:43.410Z,10240.00
2023-03-27T08:00:43.498Z,9236.00
2023-03-27T08:01:43.558Z,8564.00
2023-03-27T08:02:43.660Z,12356.00
2023-03-27T08:03:43.874Z,16480.00
2023-03-27T08:04:43.917Z,14680.00
2023-03-27T08:05:43.930Z,10828.00
2023-03-27T08:06:43.985Z,14016.00
2023-03-27T08:07:44.044Z,26496.00
2023-03-27T08:08:44.161Z,86144.00
2023-03-27T08:09:44.225Z,14968.00
2023-03-27T08:10:44.320Z,12516.00
2023-03-27T08:11:44.373Z,20704.00
2023-03-27T08:12:44.485Z,30016.00
2023-03-27T08:13:44.577Z,21568.00
2023-03-27T08:14:44.635Z,18880.00
2023-03-27T08:15:44.695Z,31200.00
2023-03-27T08:16:44.810Z,84704.00
2023-03-27T08:17:44.895Z,11264.00
2023-03-27T08:18:44.956Z,9324.00
2023-03-27T08:19:45.010Z,8608.00
2023-03-27T08:20:45.082Z,8524.00
2023-03-27T08:21:45.142Z,8108.00
2023-03-27T08:22:45.209Z,7204.00
2023-03-27T08:23:45.321Z,6516.00
2023-03-27T08:24:45.345Z,6536.00
2023-03-27T08:25:45.400Z,7020.00
2023-03-27T08:26:45.474Z,7512.00
2023-03-27T08:27:45.532Z,7316.00
2023-03-27T08:28:45.635Z,7084.00
2023-03-27T08:29:45.758Z,7352.00
2023-03-27T08:30:45.832Z,7796.00
2023-03-27T08:31:45.874Z,8472.00
2023-03-27T08:32:45.977Z,9308.00
2023-03-27T08:33:46.046Z,9752.00
2023-03-27T08:34:46.103Z,9928.00
2023-03-27T08:35:46.222Z,9304.00
2023-03-27T08:36:46.250Z,10692.00
2023-03-27T08:37:46.312Z,65376.00
2023-03-27T08:38:46.438Z,83488.00
2023-03-27T08:39:46.493Z,67328.00
2023-03-27T08:40:46.585Z,12604.00
2023-03-27T08:41:46.654Z,16864.00
2023-03-27T08:42:46.726Z,83904.00
2023-03-27T08:43:46.810Z,38720.00
2023-03-27T08:44:46.886Z,78048.00
2023-03-27T08:45:46.952Z,23648.00
2023-03-27T08:46:47.117Z,21120.00
2023-03-27T08:47:47.211Z,28704.00
2023-03-27T08:48:47.260Z,20256.00
2023-03-27T08:49:47.314Z,13432.00
2023-03-27T08:50:47.389Z,12028.00
2023-03-27T08:51:47.478Z,12216.00
2023-03-27T08:52:47.545Z,12184.00
2023-03-27T08:53:47.647Z,12096.00
2023-03-27T08:54:47.707Z,12028.00
2023-03-27T08:55:47.771Z,12516.00
2023-03-27T08:56:47.929Z,14848.00
2023-03-27T08:57:47.985Z,17792.00
2023-03-27T08:58:48.082Z,22560.00
2023-03-27T08:59:48.143Z,31424.00
2023-03-27T09:00:48.230Z,29504.00
2023-03-27T09:01:48.351Z,29856.00
2023-03-27T09:02:48.496Z,29824.00
2023-03-27T09:03:48.651Z,32576.00
2023-03-27T09:04:48.643Z,34912.00
2023-03-27T09:05:48.642Z,81696.00
2023-03-27T09:06:48.729Z,63648.00
2023-03-27T09:07:48.817Z,73632.00
2023-03-27T09:08:48.915Z,83392.00
2023-03-27T09:09:48.973Z,65952.00
2023-03-27T09:10:49.068Z,37216.00
2023-03-27T09:11:49.151Z,30368.00
2023-03-27T09:12:49.220Z,22656.00
2023-03-27T09:13:49.353Z,18208.00
2023-03-27T09:14:49.392Z,16576.00
2023-03-27T09:15:49.524Z,14596.00
2023-03-27T09:16:50.147Z,14708.00
2023-03-27T09:17:49.732Z,14352.00
2023-03-27T09:18:49.757Z,54848.00
2023-03-27T09:19:49.836Z,18112.00
2023-03-27T09:20:49.924Z,15360.00
2023-03-27T09:21:50.009Z,27040.00
2023-03-27T09:22:50.086Z,10332.00
2023-03-27T09:23:50.184Z,7884.00
2023-03-27T09:24:50.249Z,6180.00
2023-03-27T09:25:50.331Z,4772.00
2023-03-27T09:27:01.070Z,3904.00
2023-03-27T09:27:50.504Z,3556.00
2023-03-27T09:28:50.618Z,3332.00
2023-03-27T09:29:50.682Z,2788.00
2023-03-27T09:30:50.755Z,2308.00
2023-03-27T09:31:50.922Z,2108.00
2023-03-27T09:32:50.974Z,2056.00
2023-03-27T09:33:51.032Z,2096.00
2023-03-27T09:34:51.058Z,2136.00
2023-03-27T09:35:51.204Z,1956.00
2023-03-27T09:36:51.220Z,2384.00
2023-03-27T09:37:51.309Z,2876.00
2023-03-27T09:38:51.420Z,3612.00
2023-03-27T09:39:51.528Z,4728.00
2023-03-27T09:40:51.531Z,5612.00
2023-03-27T09:41:51.647Z,6372.00
2023-03-27T09:42:51.719Z,7172.00
2023-03-27T09:43:51.823Z,7128.00
2023-03-27T09:44:51.881Z,7544.00
2023-03-27T09:45:51.950Z,7568.00
2023-03-27T09:46:52.072Z,7992.00
2023-03-27T09:47:52.179Z,8436.00
2023-03-27T09:48:52.217Z,8744.00
2023-03-27T09:49:52.286Z,9540.00
2023-03-27T09:50:52.339Z,10232.00
2023-03-27T09:51:52.456Z,11428.00
2023-03-27T09:52:52.515Z,14220.00
2023-03-27T09:53:52.602Z,18720.00
2023-03-27T09:54:52.669Z,30880.00
2023-03-27T09:55:52.833Z,20960.00
2023-03-27T09:56:52.851Z,17408.00
2023-03-27T09:57:52.940Z,18496.00
2023-03-27T09:58:53.030Z,16576.00
2023-03-27T09:59:53.097Z,15552.00
2023-03-27T10:00:53.189Z,18848.00
2023-03-27T10:01:53.270Z,39168.00
2023-03-27T10:02:53.431Z,17472.00
2023-03-27T10:03:53.447Z,19040.00
2023-03-27T10:04:53.471Z,20544.00
2023-03-27T10:05:53.549Z,36224.00
2023-03-27T10:06:53.602Z,53152.00
2023-03-27T10:07:53.701Z,53664.00
2023-03-27T10:08:53.786Z,51328.00
2023-03-27T10:09:53.849Z,50880.00
2023-03-27T10:10:53.960Z,50880.00
2023-03-27T10:11:54.009Z,50720.00
2023-03-27T10:12:54.082Z,51456.00
2023-03-27T10:13:54.194Z,33664.00
2023-03-27T10:14:54.255Z,22880.00
2023-03-27T10:15:54.362Z,26560.00
2023-03-27T10:16:54.485Z,13380.00
2023-03-27T10:17:54.501Z,12596.00
2023-03-27T10:18:54.573Z,13044.00
2023-03-27T10:19:54.634Z,13956.00
2023-03-27T10:20:54.890Z,14476.00
2023-03-27T10:21:54.885Z,13380.00
2023-03-27T10:22:54.984Z,13992.00
2023-03-27T10:23:54.976Z,22560.00
2023-03-27T10:24:55.014Z,25856.00
2023-03-27T10:25:55.105Z,42624.00
2023-03-27T10:26:55.168Z,41792.00
2023-03-27T10:27:55.272Z,41184.00
2023-03-27T10:28:55.344Z,38464.00
2023-03-27T10:29:55.437Z,39136.00
2023-03-27T10:30:55.801Z,35040.00
2023-03-27T10:31:55.638Z,29280.00
2023-03-27T10:32:55.727Z,33248.00
2023-03-27T10:33:55.795Z,17920.00
2023-03-27T10:34:55.858Z,29088.00
2023-03-27T10:35:55.985Z,33856.00
2023-03-27T10:36:55.985Z,33824.00
2023-03-27T10:37:56.075Z,31264.00
2023-03-27T10:38:56.159Z,34016.00
2023-03-27T10:39:56.214Z,32288.00
2023-03-27T10:40:56.525Z,30464.00
2023-03-27T10:41:56.355Z,30016.00
2023-03-27T10:42:56.428Z,24160.00
2023-03-27T10:43:56.507Z,29280.00
2023-03-27T10:44:56.567Z,27584.00
2023-03-27T10:45:56.690Z,26656.00
2023-03-27T10:46:56.764Z,26176.00
2023-03-27T10:47:56.859Z,25056.00
2023-03-27T10:48:56.895Z,11216.00
2023-03-27T10:49:56.945Z,11456.00
2023-03-27T10:50:57.190Z,21728.00
2023-03-27T10:51:57.156Z,25344.00
2023-03-27T10:52:57.208Z,24256.00
2023-03-27T10:53:59.376Z,22496.00
2023-03-27T10:54:57.355Z,19808.00
2023-03-27T10:55:57.448Z,18272.00
2023-03-27T10:56:57.565Z,15936.00
2023-03-27T10:57:57.625Z,12984.00
2023-03-27T10:58:57.691Z,13004.00
2023-03-27T10:59:57.796Z,13812.00
2023-03-27T11:00:58.043Z,14628.00
2023-03-27T11:01:57.990Z,14260.00
2023-03-27T11:02:58.040Z,15152.00
2023-03-27T11:03:58.207Z,16128.00
2023-03-27T11:04:58.200Z,15584.00
2023-03-27T11:05:58.254Z,13984.00
2023-03-27T11:06:58.326Z,16256.00
2023-03-27T11:07:58.419Z,17504.00
2023-03-27T11:08:58.502Z,18144.00
2023-03-27T11:09:58.639Z,17024.00
2023-03-27T11:10:58.839Z,16032.00
2023-03-27T11:11:58.829Z,14300.00
2023-03-27T11:12:58.842Z,11884.00
2023-03-27T11:13:58.945Z,10008.00
2023-03-27T11:14:59.053Z,8924.00
2023-03-27T11:15:59.111Z,8392.00
2023-03-27T11:16:59.272Z,8336.00
2023-03-27T11:17:59.299Z,8840.00
2023-03-27T11:18:59.331Z,8736.00
2023-03-27T11:19:59.462Z,9180.00
2023-03-27T11:20:59.511Z,9136.00
2023-03-27T11:21:59.612Z,9764.00
2023-03-27T11:22:59.658Z,10912.00
2023-03-27T11:23:59.807Z,10796.00
2023-03-27T11:24:59.898Z,11352.00
2023-03-27T11:25:59.877Z,13264.00
2023-03-27T11:26:59.960Z,13684.00
2023-03-27T11:28:00.017Z,12560.00
2023-03-27T11:29:00.116Z,10632.00
2023-03-27T11:30:00.200Z,10788.00
2023-03-27T11:31:12.001Z,11408.00
2023-03-27T11:32:00.343Z,12004.00
2023-03-27T11:33:00.461Z,12512.00
2023-03-27T11:34:00.480Z,11860.00
2023-03-27T11:35:02.677Z,10964.00
2023-03-27T11:36:00.716Z,10300.00
2023-03-27T11:37:00.753Z,9804.00
2023-03-27T11:38:00.819Z,9192.00
2023-03-27T11:39:00.908Z,7568.00
2023-03-27T11:40:00.991Z,7156.00
2023-03-27T11:41:01.057Z,7156.00
2023-03-27T11:42:01.136Z,8352.00
2023-03-27T11:43:01.199Z,7412.00
2023-03-27T11:44:01.281Z,7596.00
2023-03-27T11:45:01.366Z,7500.00
2023-03-27T11:46:01.436Z,7264.00
2023-03-27T11:47:01.503Z,6388.00
2023-03-27T11:48:01.691Z,5568.00
2023-03-27T11:49:01.680Z,5048.00
2023-03-27T11:50:01.770Z,4916.00
2023-03-27T11:51:01.841Z,4816.00
2023-03-27T11:52:01.924Z,4384.00
2023-03-27T11:53:01.999Z,4212.00
2023-03-27T11:54:02.089Z,4488.00
2023-03-27T11:55:02.165Z,5548.00
2023-03-27T11:56:02.242Z,6828.00
2023-03-27T11:57:02.348Z,6968.00
2023-03-27T11:58:02.387Z,8368.00
2023-03-27T11:59:02.454Z,8376.00
2023-03-27T12:00:02.544Z,8320.00
2023-03-27T12:01:02.610Z,8252.00
2023-03-27T12:02:02.785Z,8140.00
2023-03-27T12:03:02.851Z,8040.00
2023-03-27T12:04:02.908Z,7892.00
2023-03-27T12:05:02.918Z,7780.00
2023-03-27T12:06:02.985Z,7804.00
2023-03-27T12:07:04.973Z,7812.00
2023-03-27T12:08:03.145Z,8012.00
2023-03-27T12:09:03.219Z,8768.00
2023-03-27T12:10:03.316Z,10428.00
2023-03-27T12:11:03.378Z,11904.00
2023-03-27T12:12:03.450Z,12432.00
2023-03-27T12:13:03.534Z,12044.00
2023-03-27T12:14:08.914Z,13096.00
2023-03-27T12:15:03.700Z,12984.00
2023-03-27T12:16:03.818Z,13652.00
2023-03-27T12:17:03.840Z,13344.00
2023-03-27T12:18:04.011Z,11612.00
2023-03-27T12:19:10.662Z,10992.00
2023-03-27T12:20:04.105Z,10464.00
2023-03-27T12:21:04.465Z,10712.00
2023-03-27T12:22:09.280Z,11424.00
2023-03-27T12:23:04.332Z,11032.00
2023-03-27T12:24:04.420Z,11580.00
2023-03-27T12:25:04.567Z,12020.00
2023-03-27T12:26:04.577Z,11556.00
2023-03-27T12:27:04.642Z,10784.00
2023-03-27T12:28:04.738Z,10396.00